sensor_id;sensor_type;location;lat;lon;timestamp;pressure;altitude;pressure_sealevel;temperature;humidity
75627;BME280;67372;49.404;11.034;2023-08-31T00:00:23;97523.75;;;14.39;84.64
75627;BME280;67372;49.404;11.034;2023-08-31T00:02:50;97521.88;;;14.40;84.91
75627;BME280;67372;49.404;11.034;2023-08-31T00:05:16;97527.00;;;14.41;84.64
75627;BME280;67372;49.404;11.034;2023-08-31T00:07:43;97532.13;;;14.43;84.47
75627;BME280;67372;49.404;11.034;2023-08-31T00:10:09;97527.34;;;14.45;84.33
75627;BME280;67372;49.404;11.034;2023-08-31T00:12:36;97521.72;;;14.47;83.81
75627;BME280;67372;49.404;11.034;2023-08-31T00:15:03;97516.34;;;14.47;84.17
75627;BME280;67372;49.404;11.034;2023-08-31T00:17:30;97520.66;;;14.48;84.29
75627;BME280;67372;49.404;11.034;2023-08-31T00:19:56;97524.94;;;14.49;84.20
75627;BME280;67372;49.404;11.034;2023-08-31T00:22:23;97521.19;;;14.50;83.78
75627;BME280;67372;49.404;11.034;2023-08-31T00:24:49;97520.38;;;14.49;84.05
75627;BME280;67372;49.404;11.034;2023-08-31T00:27:16;97518.25;;;14.51;84.06
75627;BME280;67372;49.404;11.034;2023-08-31T00:29:42;97521.47;;;14.53;83.75
75627;BME280;67372;49.404;11.034;2023-08-31T00:32:09;97515.03;;;14.49;84.44
75627;BME280;67372;49.404;11.034;2023-08-31T00:34:35;97511.53;;;14.49;84.48
75627;BME280;67372;49.404;11.034;2023-08-31T00:37:01;97495.69;;;14.47;83.94
75627;BME280;67372;49.404;11.034;2023-08-31T00:39:28;97488.97;;;14.45;85.20
75627;BME280;67372;49.404;11.034;2023-08-31T00:41:54;97497.44;;;14.36;85.58
75627;BME280;67372;49.404;11.034;2023-08-31T00:44:21;97512.16;;;14.29;86.70
75627;BME280;67372;49.404;11.034;2023-08-31T00:46:47;97509.72;;;14.27;85.93
75627;BME280;67372;49.404;11.034;2023-08-31T00:49:14;97510.53;;;14.28;85.84
75627;BME280;67372;49.404;11.034;2023-08-31T00:51:40;97512.16;;;14.29;85.22
75627;BME280;67372;49.404;11.034;2023-08-31T00:54:06;97516.19;;;14.31;85.50
75627;BME280;67372;49.404;11.034;2023-08-31T00:56:33;97514.31;;;14.32;85.60
75627;BME280;67372;49.404;11.034;2023-08-31T00:58:59;97519.69;;;14.32;86.31
75627;BME280;67372;49.404;11.034;2023-08-31T01:01:39;97526.94;;;14.31;85.69
75627;BME280;67372;49.404;11.034;2023-08-31T01:07:18;97525.59;;;14.34;85.90
75627;BME280;67372;49.404;11.034;2023-08-31T01:09:59;97522.38;;;14.32;86.06
75627;BME280;67372;49.404;11.034;2023-08-31T01:12:40;97518.31;;;14.29;85.65
75627;BME280;67372;49.404;11.034;2023-08-31T01:15:11;97524.50;;;14.30;85.42
75627;BME280;67372;49.404;11.034;2023-08-31T01:17:40;97543.28;;;14.30;85.90
75627;BME280;67372;49.404;11.034;2023-08-31T01:20:08;97544.34;;;14.29;85.40
75627;BME280;67372;49.404;11.034;2023-08-31T01:22:40;97547.59;;;14.31;85.39
75627;BME280;67372;49.404;11.034;2023-08-31T01:25:09;97553.50;;;14.33;85.13
75627;BME280;67372;49.404;11.034;2023-08-31T01:27:36;97547.06;;;14.34;85.89
75627;BME280;67372;49.404;11.034;2023-08-31T01:30:04;97542.50;;;14.34;85.21
75627;BME280;67372;49.404;11.034;2023-08-31T01:32:31;97533.13;;;14.37;85.04
75627;BME280;67372;49.404;11.034;2023-08-31T01:34:57;97534.22;;;14.41;84.86
75627;BME280;67372;49.404;11.034;2023-08-31T01:37:31;97545.53;;;14.43;85.04
75627;BME280;67372;49.404;11.034;2023-08-31T01:40:02;97543.91;;;14.42;85.17
75627;BME280;67372;49.404;11.034;2023-08-31T01:42:31;97541.22;;;14.42;85.19
75627;BME280;67372;49.404;11.034;2023-08-31T01:44:59;97537.72;;;14.41;85.13
75627;BME280;67372;49.404;11.034;2023-08-31T01:47:26;97535.66;;;14.43;84.52
75627;BME280;67372;49.404;11.034;2023-08-31T01:49:53;97541.72;;;14.39;86.39
75627;BME280;67372;49.404;11.034;2023-08-31T01:52:20;97540.94;;;14.38;84.46
75627;BME280;67372;49.404;11.034;2023-08-31T01:54:46;97540.38;;;14.36;84.60
75627;BME280;67372;49.404;11.034;2023-08-31T01:57:13;97548.94;;;14.33;84.34
75627;BME280;67372;49.404;11.034;2023-08-31T01:59:39;97551.34;;;14.30;84.51
75627;BME280;67372;49.404;11.034;2023-08-31T02:02:05;97558.28;;;14.26;84.29
75627;BME280;67372;49.404;11.034;2023-08-31T02:04:32;97564.97;;;14.23;84.85
75627;BME280;67372;49.404;11.034;2023-08-31T02:06:58;97567.41;;;14.25;85.00
75627;BME280;67372;49.404;11.034;2023-08-31T02:09:24;97572.50;;;14.26;85.05
75627;BME280;67372;49.404;11.034;2023-08-31T02:11:51;97575.75;;;14.28;84.98
75627;BME280;67372;49.404;11.034;2023-08-31T02:14:17;97570.94;;;14.30;84.95
75627;BME280;67372;49.404;11.034;2023-08-31T02:16:44;97567.19;;;14.31;85.05
75627;BME280;67372;49.404;11.034;2023-08-31T02:19:10;97564.22;;;14.33;85.00
75627;BME280;67372;49.404;11.034;2023-08-31T02:21:36;97567.72;;;14.33;84.98
75627;BME280;67372;49.404;11.034;2023-08-31T02:24:03;97566.91;;;14.33;84.55
75627;BME280;67372;49.404;11.034;2023-08-31T02:26:30;97573.59;;;14.30;84.52
75627;BME280;67372;49.404;11.034;2023-08-31T02:28:56;97568.19;;;14.25;84.66
75627;BME280;67372;49.404;11.034;2023-08-31T02:31:22;97575.69;;;14.23;84.65
75627;BME280;67372;49.404;11.034;2023-08-31T02:33:49;97581.59;;;14.20;85.30
75627;BME280;67372;49.404;11.034;2023-08-31T02:36:15;97581.00;;;14.18;85.10
75627;BME280;67372;49.404;11.034;2023-08-31T02:38:41;97578.56;;;14.17;85.49
75627;BME280;67372;49.404;11.034;2023-08-31T02:41:08;97574.53;;;14.14;85.37
75627;BME280;67372;49.404;11.034;2023-08-31T02:43:34;97570.22;;;14.13;85.52
75627;BME280;67372;49.404;11.034;2023-08-31T02:46:02;97573.16;;;14.11;85.80
75627;BME280;67372;49.404;11.034;2023-08-31T02:48:29;97573.13;;;14.06;86.50
75627;BME280;67372;49.404;11.034;2023-08-31T02:50:57;97565.56;;;13.98;85.94
75627;BME280;67372;49.404;11.034;2023-08-31T02:53:24;97563.84;;;13.92;85.90
75627;BME280;67372;49.404;11.034;2023-08-31T02:55:50;97568.63;;;13.85;86.02
75627;BME280;67372;49.404;11.034;2023-08-31T02:58:16;97560.28;;;13.81;86.06
75627;BME280;67372;49.404;11.034;2023-08-31T03:00:43;97563.97;;;13.75;86.09
75627;BME280;67372;49.404;11.034;2023-08-31T03:03:09;97567.09;;;13.67;85.97
75627;BME280;67372;49.404;11.034;2023-08-31T03:05:36;97575.34;;;13.61;85.79
75627;BME280;67372;49.404;11.034;2023-08-31T03:08:03;97558.66;;;13.54;85.87
75627;BME280;67372;49.404;11.034;2023-08-31T03:10:29;97563.63;;;13.45;86.37
75627;BME280;67372;49.404;11.034;2023-08-31T03:12:55;97573.97;;;13.36;86.41
75627;BME280;67372;49.404;11.034;2023-08-31T03:15:22;97571.50;;;13.30;86.19
75627;BME280;67372;49.404;11.034;2023-08-31T03:17:48;97578.06;;;13.22;86.27
75627;BME280;67372;49.404;11.034;2023-08-31T03:20:15;97585.22;;;13.16;86.23
75627;BME280;67372;49.404;11.034;2023-08-31T03:22:41;97583.28;;;13.12;86.44
75627;BME280;67372;49.404;11.034;2023-08-31T03:25:08;97594.19;;;13.05;86.54
75627;BME280;67372;49.404;11.034;2023-08-31T03:27:34;97587.09;;;12.99;86.73
75627;BME280;67372;49.404;11.034;2023-08-31T03:30:01;97591.59;;;12.94;86.98
75627;BME280;67372;49.404;11.034;2023-08-31T03:32:27;97599.31;;;12.90;86.65
75627;BME280;67372;49.404;11.034;2023-08-31T03:34:54;97600.53;;;12.82;87.38
75627;BME280;67372;49.404;11.034;2023-08-31T03:37:20;97605.59;;;12.79;87.46
75627;BME280;67372;49.404;11.034;2023-08-31T03:39:47;97601.75;;;12.75;87.10
75627;BME280;67372;49.404;11.034;2023-08-31T03:42:14;97601.44;;;12.71;87.16
75627;BME280;67372;49.404;11.034;2023-08-31T03:44:40;97606.22;;;12.69;87.33
75627;BME280;67372;49.404;11.034;2023-08-31T03:47:06;97605.09;;;12.65;87.24
75627;BME280;67372;49.404;11.034;2023-08-31T03:49:33;97608.25;;;12.62;87.20
75627;BME280;67372;49.404;11.034;2023-08-31T03:51:59;97609.81;;;12.58;87.16
75627;BME280;67372;49.404;11.034;2023-08-31T03:54:26;97617.72;;;12.53;88.26
75627;BME280;67372;49.404;11.034;2023-08-31T03:56:52;97618.22;;;12.50;87.91
75627;BME280;67372;49.404;11.034;2023-08-31T03:59:19;97616.84;;;12.47;87.78
75627;BME280;67372;49.404;11.034;2023-08-31T04:01:45;97623.25;;;12.46;87.55
75627;BME280;67372;49.404;11.034;2023-08-31T04:04:12;97631.50;;;12.45;87.48
75627;BME280;67372;49.404;11.034;2023-08-31T04:06:38;97632.81;;;12.42;87.45
75627;BME280;67372;49.404;11.034;2023-08-31T04:09:04;97637.84;;;12.39;87.86
75627;BME280;67372;49.404;11.034;2023-08-31T04:11:31;97639.38;;;12.35;88.83
75627;BME280;67372;49.404;11.034;2023-08-31T04:13:57;97640.06;;;12.30;88.63
75627;BME280;67372;49.404;11.034;2023-08-31T04:16:24;97648.34;;;12.28;88.22
75627;BME280;67372;49.404;11.034;2023-08-31T04:18:50;97653.94;;;12.27;87.99
75627;BME280;67372;49.404;11.034;2023-08-31T04:21:19;97647.78;;;12.26;87.94
75627;BME280;67372;49.404;11.034;2023-08-31T04:23:46;97656.03;;;12.25;87.90
75627;BME280;67372;49.404;11.034;2023-08-31T04:26:13;97659.44;;;12.20;88.19
75627;BME280;67372;49.404;11.034;2023-08-31T04:28:40;97666.91;;;12.18;88.36
75627;BME280;67372;49.404;11.034;2023-08-31T04:31:07;97667.13;;;12.17;88.35
75627;BME280;67372;49.404;11.034;2023-08-31T04:33:34;97672.47;;;12.17;88.71
75627;BME280;67372;49.404;11.034;2023-08-31T04:36:01;97679.44;;;12.18;88.25
75627;BME280;67372;49.404;11.034;2023-08-31T04:38:27;97677.50;;;12.13;88.49
75627;BME280;67372;49.404;11.034;2023-08-31T04:40:54;97674.25;;;12.11;88.78
75627;BME280;67372;49.404;11.034;2023-08-31T04:43:20;97677.97;;;12.10;88.28
75627;BME280;67372;49.404;11.034;2023-08-31T04:45:46;97684.38;;;12.09;88.38
75627;BME280;67372;49.404;11.034;2023-08-31T04:48:13;97684.63;;;12.08;89.13
75627;BME280;67372;49.404;11.034;2023-08-31T04:50:39;97697.38;;;12.06;88.66
75627;BME280;67372;49.404;11.034;2023-08-31T04:53:05;97699.03;;;12.07;88.23
75627;BME280;67372;49.404;11.034;2023-08-31T04:55:32;97703.34;;;12.08;88.55
75627;BME280;67372;49.404;11.034;2023-08-31T04:57:58;97707.63;;;12.09;88.57
75627;BME280;67372;49.404;11.034;2023-08-31T05:00:25;97712.50;;;12.12;88.35
75627;BME280;67372;49.404;11.034;2023-08-31T05:02:51;97710.97;;;12.16;88.33
75627;BME280;67372;49.404;11.034;2023-08-31T05:05:18;97717.47;;;12.20;88.44
75627;BME280;67372;49.404;11.034;2023-08-31T05:07:44;97713.59;;;12.27;88.72
75627;BME280;67372;49.404;11.034;2023-08-31T05:10:10;97711.34;;;12.36;88.21
75627;BME280;67372;49.404;11.034;2023-08-31T05:12:37;97717.13;;;12.45;87.99
75627;BME280;67372;49.404;11.034;2023-08-31T05:15:04;97716.72;;;12.53;87.88
75627;BME280;67372;49.404;11.034;2023-08-31T05:17:31;97721.38;;;12.57;87.95
75627;BME280;67372;49.404;11.034;2023-08-31T05:19:58;97717.72;;;12.64;87.72
75627;BME280;67372;49.404;11.034;2023-08-31T05:22:25;97718.53;;;12.64;87.68
75627;BME280;67372;49.404;11.034;2023-08-31T05:24:51;97721.53;;;12.68;87.43
75627;BME280;67372;49.404;11.034;2023-08-31T05:27:17;97734.19;;;12.72;87.28
75627;BME280;67372;49.404;11.034;2023-08-31T05:29:44;97733.47;;;12.77;86.84
75627;BME280;67372;49.404;11.034;2023-08-31T05:32:10;97736.50;;;12.80;86.92
75627;BME280;67372;49.404;11.034;2023-08-31T05:34:36;97744.13;;;12.88;86.54
75627;BME280;67372;49.404;11.034;2023-08-31T05:37:04;97739.66;;;12.94;86.44
75627;BME280;67372;49.404;11.034;2023-08-31T05:39:30;97747.50;;;13.01;86.36
75627;BME280;67372;49.404;11.034;2023-08-31T05:41:57;97744.69;;;13.07;86.09
75627;BME280;67372;49.404;11.034;2023-08-31T05:44:25;97748.25;;;13.13;85.93
75627;BME280;67372;49.404;11.034;2023-08-31T05:46:51;97738.47;;;13.18;85.98
75627;BME280;67372;49.404;11.034;2023-08-31T05:49:18;97740.16;;;13.25;86.11
75627;BME280;67372;49.404;11.034;2023-08-31T05:51:44;97749.66;;;13.32;85.94
75627;BME280;67372;49.404;11.034;2023-08-31T05:54:10;97745.44;;;13.36;85.96
75627;BME280;67372;49.404;11.034;2023-08-31T05:56:39;97754.59;;;13.40;85.78
75627;BME280;67372;49.404;11.034;2023-08-31T05:59:06;97749.56;;;13.44;85.79
75627;BME280;67372;49.404;11.034;2023-08-31T06:01:34;97753.59;;;13.46;85.94
75627;BME280;67372;49.404;11.034;2023-08-31T06:04:01;97755.00;;;13.49;85.94
75627;BME280;67372;49.404;11.034;2023-08-31T06:06:28;97752.91;;;13.51;86.37
75627;BME280;67372;49.404;11.034;2023-08-31T06:08:54;97756.13;;;13.53;86.19
75627;BME280;67372;49.404;11.034;2023-08-31T06:11:21;97754.91;;;13.61;85.79
75627;BME280;67372;49.404;11.034;2023-08-31T06:13:47;97757.16;;;13.69;86.38
75627;BME280;67372;49.404;11.034;2023-08-31T06:16:13;97759.19;;;13.78;85.86
75627;BME280;67372;49.404;11.034;2023-08-31T06:18:40;97759.78;;;13.86;86.10
75627;BME280;67372;49.404;11.034;2023-08-31T06:21:06;97770.34;;;13.92;86.06
75627;BME280;67372;49.404;11.034;2023-08-31T06:23:33;97763.44;;;13.96;86.24
75627;BME280;67372;49.404;11.034;2023-08-31T06:25:59;97764.38;;;14.07;86.75
75627;BME280;67372;49.404;11.034;2023-08-31T06:28:25;97776.59;;;14.20;87.23
75627;BME280;67372;49.404;11.034;2023-08-31T06:30:52;97777.19;;;14.43;86.39
75627;BME280;67372;49.404;11.034;2023-08-31T06:33:18;97771.53;;;14.67;85.63
75627;BME280;67372;49.404;11.034;2023-08-31T06:35:47;97772.84;;;14.91;84.88
75627;BME280;67372;49.404;11.034;2023-08-31T06:38:14;97768.69;;;15.11;84.39
75627;BME280;67372;49.404;11.034;2023-08-31T06:40:42;97782.00;;;15.27;83.59
75627;BME280;67372;49.404;11.034;2023-08-31T06:43:08;97780.72;;;15.35;82.91
75627;BME280;67372;49.404;11.034;2023-08-31T06:45:35;97785.09;;;15.41;82.20
75627;BME280;67372;49.404;11.034;2023-08-31T06:48:02;97785.41;;;15.50;82.29
75627;BME280;67372;49.404;11.034;2023-08-31T06:50:28;97784.75;;;15.64;81.26
75627;BME280;67372;49.404;11.034;2023-08-31T06:52:54;97785.88;;;15.79;81.14
75627;BME280;67372;49.404;11.034;2023-08-31T06:55:21;97786.00;;;15.94;80.53
75627;BME280;67372;49.404;11.034;2023-08-31T06:57:47;97784.94;;;16.05;80.18
75627;BME280;67372;49.404;11.034;2023-08-31T07:00:14;97785.22;;;16.04;77.84
75627;BME280;67372;49.404;11.034;2023-08-31T07:02:41;97791.13;;;16.01;78.81
75627;BME280;67372;49.404;11.034;2023-08-31T07:05:08;97790.88;;;16.02;76.95
75627;BME280;67372;49.404;11.034;2023-08-31T07:07:34;97779.78;;;15.88;75.06
75627;BME280;67372;49.404;11.034;2023-08-31T07:10:00;97791.00;;;15.80;74.70
75627;BME280;67372;49.404;11.034;2023-08-31T07:12:27;97801.72;;;15.70;74.98
75627;BME280;67372;49.404;11.034;2023-08-31T07:14:53;97809.94;;;15.58;75.45
75627;BME280;67372;49.404;11.034;2023-08-31T07:17:20;97806.91;;;15.50;76.30
75627;BME280;67372;49.404;11.034;2023-08-31T07:19:47;97803.91;;;15.41;77.76
75627;BME280;67372;49.404;11.034;2023-08-31T07:22:13;97807.34;;;15.36;77.40
75627;BME280;67372;49.404;11.034;2023-08-31T07:24:39;97813.84;;;15.41;76.86
75627;BME280;67372;49.404;11.034;2023-08-31T07:27:06;97815.25;;;15.53;76.86
75627;BME280;67372;49.404;11.034;2023-08-31T07:29:32;97818.38;;;15.67;77.36
75627;BME280;67372;49.404;11.034;2023-08-31T07:31:59;97812.78;;;15.79;77.33
75627;BME280;67372;49.404;11.034;2023-08-31T07:34:25;97818.53;;;15.92;76.63
75627;BME280;67372;49.404;11.034;2023-08-31T07:36:52;97807.78;;;15.98;75.71
75627;BME280;67372;49.404;11.034;2023-08-31T07:39:18;97815.03;;;15.92;76.60
75627;BME280;67372;49.404;11.034;2023-08-31T07:41:45;97820.69;;;15.95;76.69
75627;BME280;67372;49.404;11.034;2023-08-31T07:44:11;97821.28;;;16.08;76.76
75627;BME280;67372;49.404;11.034;2023-08-31T07:46:37;97826.75;;;16.18;75.45
75627;BME280;67372;49.404;11.034;2023-08-31T07:49:04;97826.78;;;16.28;75.53
75627;BME280;67372;49.404;11.034;2023-08-31T07:51:30;97831.72;;;16.46;74.41
75627;BME280;67372;49.404;11.034;2023-08-31T07:53:57;97829.94;;;16.72;71.82
75627;BME280;67372;49.404;11.034;2023-08-31T07:56:23;97830.81;;;16.83;70.62
75627;BME280;67372;49.404;11.034;2023-08-31T07:58:50;97835.69;;;17.01;69.75
75627;BME280;67372;49.404;11.034;2023-08-31T08:01:16;97835.16;;;17.14;68.48
75627;BME280;67372;49.404;11.034;2023-08-31T08:03:42;97830.84;;;17.13;69.09
75627;BME280;67372;49.404;11.034;2023-08-31T08:06:09;97834.09;;;17.26;67.30
75627;BME280;67372;49.404;11.034;2023-08-31T08:08:36;97831.16;;;17.32;68.96
75627;BME280;67372;49.404;11.034;2023-08-31T08:11:04;97840.31;;;17.41;68.40
75627;BME280;67372;49.404;11.034;2023-08-31T08:13:31;97848.16;;;17.53;67.42
75627;BME280;67372;49.404;11.034;2023-08-31T08:15:57;97846.50;;;17.42;66.92
75627;BME280;67372;49.404;11.034;2023-08-31T08:18:23;97847.59;;;17.61;64.77
75627;BME280;67372;49.404;11.034;2023-08-31T08:20:50;97846.25;;;17.54;65.66
75627;BME280;67372;49.404;11.034;2023-08-31T08:23:17;97852.19;;;17.40;65.43
75627;BME280;67372;49.404;11.034;2023-08-31T08:25:43;97862.69;;;17.37;66.39
75627;BME280;67372;49.404;11.034;2023-08-31T08:28:10;97855.97;;;17.65;64.62
75627;BME280;67372;49.404;11.034;2023-08-31T08:30:36;97854.94;;;17.76;64.52
75627;BME280;67372;49.404;11.034;2023-08-31T08:33:03;97862.47;;;17.84;61.86
75627;BME280;67372;49.404;11.034;2023-08-31T08:35:29;97860.28;;;17.96;58.49
75627;BME280;67372;49.404;11.034;2023-08-31T08:37:55;97869.22;;;17.82;59.34
75627;BME280;67372;49.404;11.034;2023-08-31T08:40:22;97862.72;;;17.72;60.36
75627;BME280;67372;49.404;11.034;2023-08-31T08:42:48;97873.75;;;17.66;60.16
75627;BME280;67372;49.404;11.034;2023-08-31T08:45:15;97867.56;;;17.55;59.94
75627;BME280;67372;49.404;11.034;2023-08-31T08:47:43;97861.38;;;17.60;58.61
75627;BME280;67372;49.404;11.034;2023-08-31T08:50:11;97875.63;;;17.45;60.05
75627;BME280;67372;49.404;11.034;2023-08-31T08:52:38;97863.78;;;17.56;60.43
75627;BME280;67372;49.404;11.034;2023-08-31T08:55:05;97862.16;;;17.50;58.96
75627;BME280;67372;49.404;11.034;2023-08-31T08:57:32;97860.03;;;17.67;59.78
75627;BME280;67372;49.404;11.034;2023-08-31T08:59:58;97865.16;;;17.79;59.84
75627;BME280;67372;49.404;11.034;2023-08-31T09:02:24;97870.00;;;17.97;58.33
75627;BME280;67372;49.404;11.034;2023-08-31T09:04:51;97868.38;;;17.96;55.13
75627;BME280;67372;49.404;11.034;2023-08-31T09:07:17;97867.59;;;17.81;57.50
75627;BME280;67372;49.404;11.034;2023-08-31T09:09:51;97864.59;;;17.67;56.92
75627;BME280;67372;49.404;11.034;2023-08-31T09:12:18;97868.69;;;17.74;56.81
75627;BME280;67372;49.404;11.034;2023-08-31T09:15:00;97866.78;;;17.80;56.02
75627;BME280;67372;49.404;11.034;2023-08-31T09:17:38;97861.88;;;17.97;56.04
75627;BME280;67372;49.404;11.034;2023-08-31T09:20:05;97864.84;;;18.11;55.21
75627;BME280;67372;49.404;11.034;2023-08-31T09:22:33;97865.91;;;18.25;54.15
75627;BME280;67372;49.404;11.034;2023-08-31T09:24:59;97869.09;;;18.48;53.67
75627;BME280;67372;49.404;11.034;2023-08-31T09:27:25;97869.09;;;18.48;55.35
75627;BME280;67372;49.404;11.034;2023-08-31T09:29:55;97869.91;;;18.48;54.74
75627;BME280;67372;49.404;11.034;2023-08-31T09:32:21;97866.09;;;18.49;54.57
75627;BME280;67372;49.404;11.034;2023-08-31T09:34:48;97880.38;;;18.70;53.10
75627;BME280;67372;49.404;11.034;2023-08-31T09:37:19;97875.50;;;18.67;53.89
75627;BME280;67372;49.404;11.034;2023-08-31T09:39:45;97872.53;;;18.58;52.45
75627;BME280;67372;49.404;11.034;2023-08-31T09:42:12;97885.56;;;18.51;52.61
75627;BME280;67372;49.404;11.034;2023-08-31T09:44:44;97880.41;;;18.45;51.81
75627;BME280;67372;49.404;11.034;2023-08-31T09:47:13;97886.94;;;18.38;52.36
75627;BME280;67372;49.404;11.034;2023-08-31T09:49:41;97887.19;;;18.37;53.17
75627;BME280;67372;49.404;11.034;2023-08-31T09:52:08;97896.66;;;18.39;53.39
75627;BME280;67372;49.404;11.034;2023-08-31T09:54:36;97893.34;;;18.58;51.54
75627;BME280;67372;49.404;11.034;2023-08-31T09:57:02;97893.97;;;18.34;49.58
75627;BME280;67372;49.404;11.034;2023-08-31T09:59:30;97899.94;;;18.26;50.46
75627;BME280;67372;49.404;11.034;2023-08-31T10:01:57;97890.47;;;18.19;50.44
75627;BME280;67372;49.404;11.034;2023-08-31T10:04:24;97893.47;;;18.12;50.82
75627;BME280;67372;49.404;11.034;2023-08-31T10:06:50;97897.53;;;17.84;52.03
75627;BME280;67372;49.404;11.034;2023-08-31T10:09:17;97896.19;;;17.82;52.89
75627;BME280;67372;49.404;11.034;2023-08-31T10:11:44;97891.34;;;17.89;53.53
75627;BME280;67372;49.404;11.034;2023-08-31T10:14:11;97886.44;;;18.11;53.29
75627;BME280;67372;49.404;11.034;2023-08-31T10:16:43;97890.44;;;18.34;51.93
75627;BME280;67372;49.404;11.034;2023-08-31T10:19:10;97876.88;;;18.59;51.88
75627;BME280;67372;49.404;11.034;2023-08-31T10:21:36;97886.19;;;18.97;51.48
75627;BME280;67372;49.404;11.034;2023-08-31T10:24:03;97890.03;;;19.36;51.07
75627;BME280;67372;49.404;11.034;2023-08-31T10:26:31;97887.50;;;19.54;49.61
75627;BME280;67372;49.404;11.034;2023-08-31T10:28:58;97884.59;;;19.80;46.24
75627;BME280;67372;49.404;11.034;2023-08-31T10:31:30;97890.22;;;19.83;47.68
75627;BME280;67372;49.404;11.034;2023-08-31T10:34:02;97886.47;;;19.79;43.60
75627;BME280;67372;49.404;11.034;2023-08-31T10:36:39;97893.72;;;19.55;44.14
75627;BME280;67372;49.404;11.034;2023-08-31T10:39:13;97889.13;;;19.50;46.22
75627;BME280;67372;49.404;11.034;2023-08-31T10:41:40;97886.28;;;19.71;47.08
75627;BME280;67372;49.404;11.034;2023-08-31T10:46:45;97904.56;;;19.84;47.27
75627;BME280;67372;49.404;11.034;2023-08-31T10:51:40;97907.19;;;19.65;46.72
75627;BME280;67372;49.404;11.034;2023-08-31T10:59:40;97887.31;;;19.36;44.79
75627;BME280;67372;49.404;11.034;2023-08-31T11:02:07;97883.47;;;19.47;46.48
75627;BME280;67372;49.404;11.034;2023-08-31T11:04:54;97880.47;;;19.48;44.23
75627;BME280;67372;49.404;11.034;2023-08-31T11:07:26;97870.50;;;19.39;44.57
75627;BME280;67372;49.404;11.034;2023-08-31T11:12:34;97892.38;;;19.47;46.68
75627;BME280;67372;49.404;11.034;2023-08-31T11:15:00;97893.66;;;19.60;46.61
75627;BME280;67372;49.404;11.034;2023-08-31T11:17:27;97891.00;;;19.55;47.05
75627;BME280;67372;49.404;11.034;2023-08-31T11:19:56;97892.09;;;19.49;47.49
75627;BME280;67372;49.404;11.034;2023-08-31T11:22:23;97882.13;;;19.44;47.28
75627;BME280;67372;49.404;11.034;2023-08-31T11:24:49;97906.53;;;19.78;46.48
75627;BME280;67372;49.404;11.034;2023-08-31T11:27:19;97893.19;;;19.87;45.74
75627;BME280;67372;49.404;11.034;2023-08-31T11:29:46;97893.56;;;19.75;46.15
75627;BME280;67372;49.404;11.034;2023-08-31T11:32:12;97901.06;;;19.83;46.08
75627;BME280;67372;49.404;11.034;2023-08-31T11:34:40;97896.34;;;19.65;45.67
75627;BME280;67372;49.404;11.034;2023-08-31T11:37:07;97908.63;;;19.86;44.93
75627;BME280;67372;49.404;11.034;2023-08-31T11:39:33;97894.56;;;19.84;44.96
75627;BME280;67372;49.404;11.034;2023-08-31T11:42:00;97905.56;;;19.98;45.55
75627;BME280;67372;49.404;11.034;2023-08-31T11:44:27;97923.75;;;19.92;44.08
75627;BME280;67372;49.404;11.034;2023-08-31T11:46:53;97912.88;;;19.98;42.72
75627;BME280;67372;49.404;11.034;2023-08-31T11:49:21;97916.47;;;19.88;44.46
75627;BME280;67372;49.404;11.034;2023-08-31T11:51:48;97920.59;;;19.80;44.97
75627;BME280;67372;49.404;11.034;2023-08-31T11:54:17;97926.88;;;20.05;42.02
75627;BME280;67372;49.404;11.034;2023-08-31T11:56:47;97939.25;;;19.82;43.03
75627;BME280;67372;49.404;11.034;2023-08-31T11:59:17;97927.00;;;19.55;43.48
75627;BME280;67372;49.404;11.034;2023-08-31T12:01:48;97923.75;;;19.53;44.99
75627;BME280;67372;49.404;11.034;2023-08-31T12:04:21;97927.78;;;19.56;45.22
75627;BME280;67372;49.404;11.034;2023-08-31T12:06:49;97918.97;;;19.79;44.97
75627;BME280;67372;49.404;11.034;2023-08-31T12:09:16;97922.03;;;19.68;45.25
75627;BME280;67372;49.404;11.034;2023-08-31T12:11:52;97925.84;;;19.61;45.54
75627;BME280;67372;49.404;11.034;2023-08-31T12:14:23;97913.41;;;19.66;45.32
75627;BME280;67372;49.404;11.034;2023-08-31T12:16:50;97915.84;;;19.62;46.10
75627;BME280;67372;49.404;11.034;2023-08-31T12:19:17;97915.56;;;19.63;46.46
75627;BME280;67372;49.404;11.034;2023-08-31T12:21:45;97919.91;;;19.65;46.15
75627;BME280;67372;49.404;11.034;2023-08-31T12:24:12;97925.84;;;19.67;47.35
75627;BME280;67372;49.404;11.034;2023-08-31T12:26:40;97930.31;;;19.81;47.68
75627;BME280;67372;49.404;11.034;2023-08-31T12:29:06;97926.69;;;19.96;46.34
75627;BME280;67372;49.404;11.034;2023-08-31T12:31:33;97926.31;;;20.08;46.17
75627;BME280;67372;49.404;11.034;2023-08-31T12:33:59;97929.47;;;20.20;46.08
75627;BME280;67372;49.404;11.034;2023-08-31T12:36:26;97929.06;;;20.32;45.46
75627;BME280;67372;49.404;11.034;2023-08-31T12:38:52;97927.41;;;20.41;42.83
75627;BME280;67372;49.404;11.034;2023-08-31T12:41:18;97936.56;;;20.45;43.01
75627;BME280;67372;49.404;11.034;2023-08-31T12:43:47;97927.97;;;20.33;44.38
75627;BME280;67372;49.404;11.034;2023-08-31T12:46:14;97933.94;;;20.35;43.56
75627;BME280;67372;49.404;11.034;2023-08-31T12:48:40;97935.34;;;20.27;43.95
75627;BME280;67372;49.404;11.034;2023-08-31T12:51:07;97928.72;;;20.09;44.63
75627;BME280;67372;49.404;11.034;2023-08-31T12:53:37;97930.34;;;20.10;44.25
75627;BME280;67372;49.404;11.034;2023-08-31T12:56:04;97925.72;;;20.16;44.21
75627;BME280;67372;49.404;11.034;2023-08-31T12:58:30;97927.31;;;20.17;44.54
75627;BME280;67372;49.404;11.034;2023-08-31T13:00:58;97927.97;;;20.04;45.49
75627;BME280;67372;49.404;11.034;2023-08-31T13:03:25;97930.69;;;20.04;45.23
75627;BME280;67372;49.404;11.034;2023-08-31T13:05:51;97921.22;;;20.01;46.06